Time;durP1;ratioP1;P1;durP2;ratioP2;P2;SDS_P1;SDS_P2;PMS_P1;PMS_P2;Temp;Humidity;BMP_temperature;BMP_pressure;BME280_temperature;BME280_humidity;BME280_pressure;Samples;Min_cycle;Max_cycle;Signal;HPM_P1;HPM_P2
2020/12/30 00:00:11;;;;;;;13.77;5.30;;;;;;;2.19;97.17;94439.19;5077442;28;20441;-80
2020/12/30 00:02:38;;;;;;;10.00;4.70;;;;;;;2.20;98.01;94437.94;5080779;28;20465;-79
2020/12/30 00:05:06;;;;;;;5.63;3.60;;;;;;;2.23;97.88;94430.84;5077093;28;20445;-79
2020/12/30 00:07:33;;;;;;;8.97;3.60;;;;;;;2.22;98.16;94432.09;5076541;28;20445;-79
2020/12/30 00:09:59;;;;;;;5.17;3.97;;;;;;;2.25;98.02;94437.06;5076207;28;20447;-79
2020/12/30 00:12:28;;;;;;;6.30;3.00;;;;;;;2.35;97.67;94431.91;5079103;28;20501;-80
2020/12/30 00:14:55;;;;;;;4.73;2.90;;;;;;;2.35;97.67;94442.56;5080951;28;20446;-80
2020/12/30 00:17:22;;;;;;;4.40;2.93;;;;;;;2.49;97.57;94446.44;5081088;28;20463;-80
2020/12/30 00:19:48;;;;;;;4.80;3.00;;;;;;;2.53;97.08;94452.84;5080349;28;20445;-79
2020/12/30 00:22:15;;;;;;;2.70;2.13;;;;;;;2.48;97.18;94453.72;5076911;28;20560;-79
2020/12/30 00:24:41;;;;;;;6.30;4.07;;;;;;;2.50;96.91;94453.91;5076315;28;20437;-80
2020/12/30 00:27:08;;;;;;;7.03;2.80;;;;;;;2.54;96.44;94456.19;5076288;28;20464;-79
2020/12/30 00:29:34;;;;;;;5.40;3.10;;;;;;;2.52;96.64;94459.41;5076187;28;20449;-79
2020/12/30 00:32:01;;;;;;;4.47;3.00;;;;;;;2.46;95.71;94458.16;5078017;28;20863;-82
2020/12/30 00:34:29;;;;;;;3.93;3.23;;;;;;;2.49;96.34;94446.44;5080197;28;20650;-82
2020/12/30 00:36:55;;;;;;;9.60;3.53;;;;;;;2.45;96.23;94454.06;5077992;28;20529;-79
2020/12/30 00:39:21;;;;;;;5.93;4.23;;;;;;;2.36;96.35;94452.66;5076325;28;20456;-79
2020/12/30 00:41:53;;;;;;;6.83;4.40;;;;;;;2.28;96.42;94453.91;5075650;28;20472;-80
2020/12/30 00:44:19;;;;;;;8.50;3.87;;;;;;;2.25;96.95;94447.69;5076385;28;20400;-80
2020/12/30 00:46:51;;;;;;;7.60;4.63;;;;;;;2.26;96.39;94451.06;5076632;28;20449;-81
2020/12/30 00:49:17;;;;;;;4.90;3.30;;;;;;;2.22;96.62;94456.03;5080508;28;20457;-80
2020/12/30 00:51:50;;;;;;;6.50;4.33;;;;;;;2.22;96.62;94461.34;5080142;28;20557;-81
2020/12/30 00:54:16;;;;;;;5.80;4.30;;;;;;;2.21;96.45;94465.25;5078263;28;20433;-79
2020/12/30 00:56:43;;;;;;;5.90;4.50;;;;;;;2.06;96.64;94466.66;5075768;28;20445;-79
2020/12/30 00:59:09;;;;;;;6.70;3.47;;;;;;;2.03;97.07;94467.00;5075467;28;20477;-79
2020/12/30 01:01:35;;;;;;;5.37;3.67;;;;;;;2.00;97.08;94474.09;5075674;28;20465;-79
2020/12/30 01:04:02;;;;;;;6.40;3.50;;;;;;;1.95;97.61;94474.25;5076405;28;20416;-79
2020/12/30 01:06:28;;;;;;;4.10;3.07;;;;;;;1.98;98.04;94475.84;5085251;28;20493;-81
2020/12/30 01:08:56;;;;;;;4.93;3.03;;;;;;;1.99;98.12;94477.28;5113251;28;20467;-81
2020/12/30 01:11:26;;;;;;;3.70;3.00;;;;;;;2.15;97.59;94476.78;5119325;28;20502;-80
2020/12/30 01:13:53;;;;;;;3.87;2.40;;;;;;;2.16;97.66;94464.88;5119638;28;20409;-81
2020/12/30 01:16:19;;;;;;;3.73;2.43;;;;;;;2.33;96.84;94479.63;5119318;28;20450;-82
2020/12/30 01:18:45;;;;;;;3.17;2.00;;;;;;;2.29;97.09;94476.63;5105675;28;20460;-83
2020/12/30 01:21:12;;;;;;;3.93;2.37;;;;;;;2.23;97.38;94481.38;5098977;28;20467;-83
2020/12/30 01:23:38;;;;;;;3.90;2.17;;;;;;;2.26;97.29;94475.72;5095924;28;20440;-81
2020/12/30 01:26:06;;;;;;;3.47;2.50;;;;;;;2.24;97.74;94474.81;5096462;28;20568;-81
2020/12/30 01:28:32;;;;;;;5.40;2.40;;;;;;;2.35;97.30;94488.47;5095798;28;20472;-81
2020/12/30 01:30:59;;;;;;;5.10;2.57;;;;;;;2.47;97.08;94486.19;5097026;28;20995;-81
2020/12/30 01:33:26;;;;;;;3.63;2.23;;;;;;;2.48;96.55;94488.31;5106695;28;20459;-81
2020/12/30 01:35:52;;;;;;;3.23;2.30;;;;;;;2.51;96.11;94491.88;5101691;28;20786;-81
2020/12/30 01:38:19;;;;;;;2.57;2.00;;;;;;;2.43;96.12;94497.19;5097977;28;20520;-79
2020/12/30 01:40:45;;;;;;;7.20;2.33;;;;;;;2.41;96.65;94496.31;5096958;28;20801;-79
2020/12/30 01:43:14;;;;;;;4.97;2.77;;;;;;;2.42;96.53;94497.72;5096478;28;20468;-79
2020/12/30 01:45:40;;;;;;;3.63;2.23;;;;;;;2.38;96.37;94494.72;5096972;28;20451;-81
2020/12/30 01:48:14;;;;;;;3.87;2.50;;;;;;;2.43;96.42;94502.53;5101193;28;20539;-83
2020/12/30 01:50:41;;;;;;;7.10;2.77;;;;;;;2.49;95.75;94497.00;5101084;28;20413;-82
2020/12/30 01:53:08;;;;;;;5.50;2.17;;;;;;;2.47;95.88;94496.84;5101859;28;20460;-82
2020/12/30 01:55:38;;;;;;;3.17;2.20;;;;;;;2.42;95.97;94495.78;5100958;28;20455;-81
2020/12/30 01:58:05;;;;;;;4.50;1.70;;;;;;;2.41;95.78;94501.63;5093834;28;20446;-80
2020/12/30 02:00:33;;;;;;;4.10;2.60;;;;;;;2.42;95.92;94503.03;5080199;28;20446;-81
2020/12/30 02:03:01;;;;;;;3.40;2.20;;;;;;;2.41;95.80;94501.63;5079837;28;20453;-79
2020/12/30 02:05:30;;;;;;;3.00;2.70;;;;;;;2.42;95.94;94511.03;5075421;28;20445;-79
2020/12/30 02:07:58;;;;;;;3.13;2.20;;;;;;;2.43;95.53;94505.19;5078955;28;20450;-79
2020/12/30 02:10:27;;;;;;;4.20;2.60;;;;;;;2.31;96.25;94506.78;5076805;28;20532;-81
2020/12/30 02:12:54;;;;;;;4.33;3.13;;;;;;;2.32;96.52;94512.81;5077205;28;20543;-82
2020/12/30 02:15:27;;;;;;;3.37;2.00;;;;;;;2.31;96.73;94500.72;5076727;28;20930;-81
2020/12/30 02:17:55;;;;;;;3.33;2.93;;;;;;;2.38;96.67;94511.38;5077843;28;20418;-81
2020/12/30 02:20:22;;;;;;;4.80;3.03;;;;;;;2.34;96.65;94511.03;5078896;28;21009;-81
2020/12/30 02:22:56;;;;;;;3.50;2.40;;;;;;;2.26;97.31;94510.28;5081309;28;20483;-79
2020/12/30 02:25:23;;;;;;;2.50;1.97;;;;;;;2.31;96.99;94517.41;5098382;28;20436;-79
2020/12/30 02:27:50;;;;;;;3.00;2.07;;;;;;;2.31;97.20;94512.09;5097714;28;20449;-79
2020/12/30 02:30:18;;;;;;;3.00;2.00;;;;;;;2.23;97.58;94519.34;5097282;28;20447;-79
2020/12/30 02:32:44;;;;;;;5.97;2.47;;;;;;;2.33;97.17;94520.25;5099470;28;20476;-78
2020/12/30 02:35:11;;;;;;;4.27;2.90;;;;;;;2.28;97.31;94520.41;5084152;28;20425;-78
2020/12/30 02:37:37;;;;;;;2.80;2.20;;;;;;;2.31;97.68;94516.69;5077305;28;20440;-78
2020/12/30 02:40:04;;;;;;;3.83;2.37;;;;;;;2.37;97.53;94523.28;5077445;28;20447;-79
2020/12/30 02:42:31;;;;;;;2.53;1.57;;;;;;;2.46;97.15;94528.06;5077785;28;20472;-79
2020/12/30 02:45:03;;;;;;;2.40;1.90;;;;;;;2.53;96.24;94524.00;5078223;28;20441;-79
2020/12/30 02:47:30;;;;;;;3.53;1.90;;;;;;;2.53;96.52;94514.06;5079459;28;20422;-81
2020/12/30 02:49:56;;;;;;;5.97;2.67;;;;;;;2.54;96.14;94528.78;5078863;28;20868;-78
2020/12/30 02:52:22;;;;;;;2.57;1.87;;;;;;;2.46;96.60;94522.03;5077572;28;20492;-78
2020/12/30 02:54:49;;;;;;;5.40;2.50;;;;;;;2.50;97.09;94527.72;5078244;28;20453;-79
2020/12/30 02:57:15;;;;;;;1.93;1.47;;;;;;;2.57;96.15;94529.66;5077441;28;20441;-79
2020/12/30 02:59:42;;;;;;;2.30;1.60;;;;;;;2.53;95.88;94534.66;5077852;28;20446;-78
2020/12/30 03:02:08;;;;;;;3.07;2.20;;;;;;;2.55;96.52;94532.88;5077854;28;20461;-78
2020/12/30 03:04:35;;;;;;;2.87;2.03;;;;;;;2.54;96.58;94534.09;5077946;28;20457;-79
2020/12/30 03:07:02;;;;;;;2.67;2.00;;;;;;;2.52;96.40;94535.88;5078247;28;20521;-78
2020/12/30 03:09:28;;;;;;;3.50;2.20;;;;;;;2.51;96.57;94534.44;5077764;28;20445;-78
2020/12/30 03:11:54;;;;;;;2.53;1.90;;;;;;;2.50;96.65;94541.03;5078009;28;20489;-79
2020/12/30 03:14:21;;;;;;;2.93;2.20;;;;;;;2.51;96.56;94535.16;5078236;28;20510;-82
2020/12/30 03:16:49;;;;;;;4.57;2.17;;;;;;;2.45;96.84;94541.88;5078298;28;20532;-80
2020/12/30 03:19:15;;;;;;;4.50;2.43;;;;;;;2.46;96.95;94543.31;5079386;28;20441;-80
2020/12/30 03:21:42;;;;;;;7.13;2.30;;;;;;;2.59;96.75;94535.91;5080897;28;20929;-79
2020/12/30 03:24:08;;;;;;;2.60;1.80;;;;;;;2.60;96.54;94541.94;5079477;28;20521;-79
2020/12/30 03:26:35;;;;;;;4.80;2.00;;;;;;;2.60;96.48;94547.94;5077031;28;20452;-79
2020/12/30 03:29:02;;;;;;;2.60;1.50;;;;;;;2.54;96.45;94549.34;5076573;28;20464;-80
2020/12/30 03:31:29;;;;;;;2.33;1.57;;;;;;;2.56;96.56;94552.94;5076964;28;20493;-79
2020/12/30 03:33:56;;;;;;;2.17;1.87;;;;;;;2.66;95.99;94553.13;5076996;28;20445;-79
2020/12/30 03:36:23;;;;;;;5.03;2.20;;;;;;;2.67;96.44;94551.84;5076237;28;20441;-79
2020/12/30 03:38:50;;;;;;;2.93;1.97;;;;;;;2.64;95.98;94552.91;5077213;28;20446;-79
2020/12/30 03:41:16;;;;;;;2.10;1.60;;;;;;;2.63;96.43;94540.88;5077059;28;20457;-78
2020/12/30 03:43:42;;;;;;;3.27;2.03;;;;;;;2.53;96.63;94548.66;5076779;28;20452;-79
2020/12/30 03:46:09;;;;;;;2.83;2.00;;;;;;;2.50;96.62;94552.38;5076771;28;20533;-78
2020/12/30 03:48:35;;;;;;;2.30;1.50;;;;;;;2.48;96.88;94552.19;5077326;28;20854;-78
2020/12/30 03:51:03;;;;;;;4.23;1.70;;;;;;;2.47;96.58;94556.13;5076912;28;20477;-79
2020/12/30 03:53:29;;;;;;;3.53;1.87;;;;;;;2.56;96.66;94557.53;5077159;28;20503;-78
2020/12/30 03:55:55;;;;;;;1.93;1.73;;;;;;;2.49;95.87;94558.94;5077294;28;20941;-79
2020/12/30 03:58:22;;;;;;;2.70;1.70;;;;;;;2.45;96.41;94555.19;5078093;28;20441;-81
2020/12/30 04:00:48;;;;;;;1.60;1.33;;;;;;;2.41;96.39;94560.88;5081016;28;20900;-80
2020/12/30 04:03:14;;;;;;;2.40;1.40;;;;;;;2.35;96.53;94564.97;5080543;28;20469;-81
2020/12/30 04:05:41;;;;;;;1.53;1.40;;;;;;;2.37;96.40;94557.88;5080534;28;20434;-81
2020/12/30 04:08:08;;;;;;;4.20;1.60;;;;;;;2.44;96.07;94549.19;5080542;28;20441;-80
2020/12/30 04:10:35;;;;;;;2.30;1.40;;;;;;;2.36;95.67;94553.06;5079879;28;20525;-80
2020/12/30 04:13:01;;;;;;;2.80;1.80;;;;;;;2.30;95.71;94553.22;5077860;28;20538;-79
2020/12/30 04:15:27;;;;;;;1.63;1.20;;;;;;;2.22;95.95;94547.19;5075903;28;20959;-79
2020/12/30 04:17:54;;;;;;;5.70;1.57;;;;;;;2.23;95.97;94547.88;5076009;28;20528;-79
2020/12/30 04:20:20;;;;;;;1.40;1.30;;;;;;;2.23;96.06;94553.91;5077974;28;20441;-83
2020/12/30 04:22:46;;;;;;;2.07;1.90;;;;;;;2.22;96.15;94549.13;5078668;28;21052;-80
2020/12/30 04:25:14;;;;;;;1.77;1.10;;;;;;;2.15;96.79;94553.91;5078377;28;20438;-79
2020/12/30 04:27:40;;;;;;;1.70;1.10;;;;;;;2.18;96.11;94552.13;5076781;28;20952;-79
2020/12/30 04:30:06;;;;;;;4.07;1.40;;;;;;;2.13;96.32;94550.38;5076001;28;20464;-79
2020/12/30 04:32:33;;;;;;;3.37;1.50;;;;;;;2.25;95.84;94551.47;5076691;28;20507;-79
2020/12/30 04:34:59;;;;;;;4.20;1.70;;;;;;;2.25;95.76;94553.41;5076331;28;20449;-79
2020/12/30 04:37:25;;;;;;;5.43;1.40;;;;;;;2.22;95.83;94557.13;5075745;28;20449;-79
2020/12/30 04:39:52;;;;;;;6.70;1.80;;;;;;;2.17;95.65;94556.75;5075593;28;20437;-80
2020/12/30 04:42:30;;;;;;;6.77;1.90;;;;;;;2.13;96.24;94564.34;5080456;28;20465;-81
2020/12/30 04:44:59;;;;;;;3.30;1.30;;;;;;;2.14;96.07;94559.75;5080970;28;20429;-80
2020/12/30 04:47:28;;;;;;;2.40;1.67;;;;;;;2.08;96.51;94565.22;5080639;28;20954;-81
2020/12/30 04:49:55;;;;;;;2.10;1.40;;;;;;;2.17;96.39;94564.00;5077245;28;20441;-78
2020/12/30 04:52:23;;;;;;;5.87;1.63;;;;;;;2.15;96.03;94564.56;5089519;28;20503;-79
2020/12/30 04:54:51;;;;;;;2.87;1.40;;;;;;;2.19;95.75;94568.81;5095224;28;20535;-78
2020/12/30 04:57:24;;;;;;;3.50;1.57;;;;;;;2.21;96.33;94576.97;5095249;28;20452;-78
2020/12/30 04:59:53;;;;;;;2.13;1.30;;;;;;;2.23;95.78;94577.84;5098812;28;20436;-82
2020/12/30 05:02:27;;;;;;;6.17;1.70;;;;;;;2.24;96.14;94578.56;5101154;28;20468;-82
2020/12/30 05:04:57;;;;;;;4.60;1.90;;;;;;;2.27;96.03;94578.22;5101884;28;20424;-82
2020/12/30 05:07:27;;;;;;;2.10;1.37;;;;;;;2.29;95.86;94572.41;5101452;28;20433;-82
2020/12/30 05:09:54;;;;;;;3.73;1.60;;;;;;;2.28;95.95;94571.69;5096083;28;20531;-79
2020/12/30 05:12:21;;;;;;;3.23;1.80;;;;;;;2.35;95.17;94578.25;5095069;28;20484;-80
2020/12/30 05:14:48;;;;;;;3.10;1.50;;;;;;;2.26;95.09;94578.75;5094605;28;20906;-79
2020/12/30 05:17:16;;;;;;;1.97;1.50;;;;;;;2.21;95.59;94576.97;5095275;28;20449;-79
2020/12/30 05:19:43;;;;;;;3.03;1.57;;;;;;;2.12;95.39;94589.53;5095298;28;20539;-79
2020/12/30 05:22:16;;;;;;;6.83;1.60;;;;;;;2.15;95.38;94587.78;5095410;28;20453;-79
2020/12/30 05:24:44;;;;;;;6.20;2.27;;;;;;;2.17;95.70;94594.00;5096448;28;20978;-80
2020/12/30 05:27:12;;;;;;;2.90;1.73;;;;;;;2.16;95.33;94597.19;5097605;28;20433;-79
2020/12/30 05:29:44;;;;;;;2.27;1.73;;;;;;;2.12;95.73;94600.19;5097224;28;20456;-79
2020/12/30 05:32:12;;;;;;;4.43;2.20;;;;;;;2.14;95.93;94603.03;5096467;28;21023;-80
2020/12/30 05:34:38;;;;;;;5.20;2.20;;;;;;;2.14;95.91;94605.69;5097939;28;20502;-81
2020/12/30 05:37:04;;;;;;;1.60;1.50;;;;;;;2.12;95.85;94610.81;5098173;28;20440;-80
2020/12/30 05:39:33;;;;;;;2.30;1.57;;;;;;;2.09;95.85;94608.50;5098539;28;20445;-81
2020/12/30 05:42:14;;;;;;;7.70;1.97;;;;;;;2.00;96.15;94612.38;5098209;28;20456;-81
2020/12/30 05:44:41;;;;;;;6.73;2.30;;;;;;;2.02;96.48;94615.22;5097615;28;20413;-80
2020/12/30 05:47:13;;;;;;;4.40;1.27;;;;;;;2.08;96.34;94620.38;5097026;28;20527;-81
2020/12/30 05:49:40;;;;;;;2.83;1.50;;;;;;;2.02;96.49;94614.50;5096957;28;20816;-81
2020/12/30 05:52:15;;;;;;;3.07;1.40;;;;;;;2.06;96.76;94628.19;5096950;28;20484;-79
2020/12/30 05:54:49;;;;;;;5.73;1.90;;;;;;;2.05;96.71;94624.09;5097286;28;20435;-78
2020/12/30 05:57:29;;;;;;;2.77;1.37;;;;;;;2.11;96.92;94629.97;5096962;28;20437;-79
2020/12/30 05:59:58;;;;;;;2.23;1.50;;;;;;;2.17;95.94;94636.56;5095894;28;20431;-78
2020/12/30 06:02:28;;;;;;;3.30;1.40;;;;;;;2.23;95.41;94643.66;5102705;28;20522;-79
2020/12/30 06:04:55;;;;;;;1.40;1.03;;;;;;;2.25;95.55;94636.59;5118643;28;20424;-81
2020/12/30 06:07:25;;;;;;;10.50;1.83;;;;;;;2.27;95.21;94638.72;5119591;28;20480;-82
2020/12/30 06:09:55;;;;;;;3.03;1.30;;;;;;;2.24;95.07;94645.78;5122900;28;20412;-80
2020/12/30 06:12:27;;;;;;;3.47;2.17;;;;;;;2.24;94.79;94645.09;5120361;28;20497;-81
2020/12/30 06:14:54;;;;;;;10.70;1.50;;;;;;;2.29;94.41;94652.22;5107092;28;20440;-80
2020/12/30 06:17:31;;;;;;;3.30;1.30;;;;;;;2.20;94.53;94656.06;5101543;28;20452;-79
2020/12/30 06:19:59;;;;;;;3.27;1.80;;;;;;;2.22;94.45;94660.88;5100403;28;20420;-79
2020/12/30 06:22:26;;;;;;;2.50;1.30;;;;;;;2.18;94.90;94663.88;5100857;28;21000;-79
2020/12/30 06:24:54;;;;;;;8.03;1.90;;;;;;;2.13;94.38;94668.09;5088378;28;20461;-79
2020/12/30 06:27:22;;;;;;;6.30;1.57;;;;;;;2.16;94.58;94667.03;5081422;28;20465;-80
2020/12/30 06:29:51;;;;;;;2.10;1.50;;;;;;;2.23;94.58;94663.00;5082509;28;20451;-81
2020/12/30 06:32:30;;;;;;;2.30;1.33;;;;;;;2.29;94.14;94668.19;5084871;28;20500;-81
2020/12/30 06:34:59;;;;;;;3.77;2.10;;;;;;;2.23;94.61;94664.94;5084436;28;20918;-81
2020/12/30 06:37:33;;;;;;;4.23;1.90;;;;;;;2.15;94.26;94676.28;5079881;28;20449;-78
2020/12/30 06:40:26;;;;;;;3.83;1.63;;;;;;;2.05;94.73;94683.31;5077473;28;20970;-78
2020/12/30 06:42:55;;;;;;;1.67;1.57;;;;;;;2.02;95.18;94683.66;5078901;28;20825;-79
2020/12/30 06:45:51;;;;;;;4.63;1.80;;;;;;;2.03;95.58;94685.78;5078397;28;20437;-80
2020/12/30 06:48:18;;;;;;;3.90;1.53;;;;;;;2.07;96.02;94688.81;5080013;28;20434;-80
2020/12/30 06:50:46;;;;;;;2.80;1.90;;;;;;;2.07;95.90;94696.78;5082861;28;20440;-80
2020/12/30 06:53:29;;;;;;;4.13;2.43;;;;;;;2.06;95.81;94692.72;5082753;28;20579;-81
2020/12/30 06:55:56;;;;;;;4.63;1.90;;;;;;;2.02;95.96;94699.59;5083041;28;20567;-81
2020/12/30 06:58:42;;;;;;;3.60;1.83;;;;;;;2.02;96.20;94699.59;5080221;28;20433;-79
2020/12/30 07:01:09;;;;;;;2.23;1.60;;;;;;;1.97;96.86;94703.81;5079687;28;21003;-79
2020/12/30 07:03:35;;;;;;;6.57;2.23;;;;;;;2.00;96.31;94702.78;5079646;28;20881;-79
2020/12/30 07:06:30;;;;;;;9.60;2.17;;;;;;;1.98;96.51;94705.25;5079695;28;20453;-80
2020/12/30 07:08:59;;;;;;;3.70;1.77;;;;;;;1.98;96.72;94715.88;5080172;28;20430;-79
2020/12/30 07:11:42;;;;;;;2.97;2.00;;;;;;;2.00;96.74;94718.03;5079442;28;20951;-79
2020/12/30 07:14:11;;;;;;;3.07;1.93;;;;;;;2.04;96.54;94713.06;5079048;28;20452;-80
2020/12/30 07:16:38;;;;;;;6.00;2.10;;;;;;;2.07;96.76;94718.06;5080009;28;20422;-79
2020/12/30 07:19:16;;;;;;;1.73;1.60;;;;;;;2.15;96.49;94721.50;5079633;28;20448;-80
2020/12/30 07:21:55;;;;;;;2.53;1.87;;;;;;;2.29;96.59;94730.06;5080488;28;20488;-78
2020/12/30 07:24:24;;;;;;;4.20;2.20;;;;;;;2.50;95.77;94730.00;5078577;28;20434;-78
2020/12/30 07:26:53;;;;;;;4.60;1.87;;;;;;;2.49;95.15;94736.53;5077160;28;20449;-78
2020/12/30 07:29:20;;;;;;;4.50;2.90;;;;;;;2.52;94.93;94736.22;5082616;28;20449;-83
2020/12/30 07:31:48;;;;;;;4.07;2.33;;;;;;;2.58;94.44;94736.75;5079869;28;20496;-79
2020/12/30 07:34:16;;;;;;;3.57;2.83;;;;;;;2.58;94.37;94746.69;5077388;28;20430;-78
2020/12/30 07:36:44;;;;;;;2.37;1.90;;;;;;;2.72;94.26;94756.00;5081400;28;20437;-82
2020/12/30 07:39:12;;;;;;;4.13;2.30;;;;;;;2.73;93.49;94762.72;5082392;28;20439;-81
2020/12/30 07:41:43;;;;;;;2.97;1.90;;;;;;;2.79;93.22;94760.63;5081249;28;20465;-81
2020/12/30 07:44:10;;;;;;;3.70;2.47;;;;;;;2.68;93.27;94763.59;5082857;28;20424;-81
2020/12/30 07:46:37;;;;;;;3.50;2.03;;;;;;;2.60;93.91;94770.84;5082434;28;20444;-82
2020/12/30 07:49:14;;;;;;;2.53;2.33;;;;;;;2.62;93.61;94771.75;5079886;28;20440;-79
2020/12/30 07:51:51;;;;;;;4.07;2.47;;;;;;;2.67;93.35;94776.19;5078548;28;20489;-78
2020/12/30 07:54:20;;;;;;;3.53;2.17;;;;;;;2.79;92.90;94776.59;5078704;28;20504;-79
2020/12/30 07:56:47;;;;;;;3.97;2.20;;;;;;;2.81;92.95;94789.41;5078900;28;20429;-79
2020/12/30 07:59:21;;;;;;;8.90;2.40;;;;;;;2.92;93.39;94789.06;5078841;28;20813;-78
2020/12/30 08:01:58;;;;;;;7.43;1.80;;;;;;;3.01;92.28;94785.91;5079732;28;20468;-79
2020/12/30 08:04:25;;;;;;;6.20;1.87;;;;;;;3.15;91.56;94787.91;5079478;28;20470;-79
2020/12/30 08:06:52;;;;;;;4.50;2.13;;;;;;;3.16;91.42;94788.63;5077884;28;20416;-79
2020/12/30 08:09:20;;;;;;;3.73;1.73;;;;;;;3.16;91.32;94791.31;5081904;28;20434;-82
2020/12/30 08:11:54;;;;;;;3.07;2.00;;;;;;;3.33;90.67;94802.16;5081962;28;20830;-83
2020/12/30 08:14:22;;;;;;;2.57;2.10;;;;;;;3.44;89.40;94798.47;5081973;28;20457;-82
2020/12/30 08:17:00;;;;;;;2.93;1.40;;;;;;;3.32;90.30;94803.41;5082356;28;20454;-82
2020/12/30 08:19:35;;;;;;;2.60;1.57;;;;;;;3.38;89.91;94795.97;5082258;28;20429;-84
2020/12/30 08:22:10;;;;;;;2.17;1.97;;;;;;;3.44;89.75;94806.47;5080236;28;20452;-81
2020/12/30 08:24:39;;;;;;;2.53;2.13;;;;;;;3.32;88.90;94797.38;5078253;28;20413;-79
2020/12/30 08:27:06;;;;;;;2.33;1.73;;;;;;;3.27;89.15;94796.28;5077423;28;20430;-79
2020/12/30 08:29:33;;;;;;;3.87;1.90;;;;;;;3.19;89.89;94798.97;5076196;28;20427;-79
2020/12/30 08:32:07;;;;;;;2.27;1.53;;;;;;;3.24;88.99;94802.69;5077901;28;20485;-80
2020/12/30 08:34:38;;;;;;;1.93;1.40;;;;;;;3.18;89.44;94810.84;5097453;28;20805;-79
2020/12/30 08:37:09;;;;;;;5.07;1.70;;;;;;;3.21;89.66;94809.06;5098352;28;20425;-79
2020/12/30 08:39:41;;;;;;;3.80;1.70;;;;;;;3.27;89.55;94806.94;5095977;28;20433;-79
2020/12/30 08:42:24;;;;;;;1.73;1.37;;;;;;;3.30;88.91;94813.88;5096669;28;20452;-79
2020/12/30 08:45:01;;;;;;;4.03;1.77;;;;;;;3.26;89.21;94810.16;5096806;28;20448;-79
2020/12/30 08:47:33;;;;;;;2.10;1.30;;;;;;;3.36;88.41;94819.06;5101636;28;20939;-81
2020/12/30 08:50:00;;;;;;;1.90;1.60;;;;;;;3.38;88.05;94819.97;5102185;28;20423;-83
2020/12/30 08:52:27;;;;;;;2.73;1.67;;;;;;;3.44;88.07;94827.78;5101006;28;20484;-79
2020/12/30 08:55:03;;;;;;;5.63;2.50;;;;;;;3.53;87.66;94835.28;5099278;28;20452;-79
2020/12/30 08:57:30;;;;;;;5.90;1.83;;;;;;;3.52;87.38;94833.84;5098519;28;20439;-79
2020/12/30 09:00:12;;;;;;;5.80;2.00;;;;;;;3.52;87.05;94831.19;5099415;28;20439;-79
2020/12/30 09:02:38;;;;;;;2.27;1.83;;;;;;;3.49;87.41;94837.56;5099227;28;20476;-79
2020/12/30 09:05:05;;;;;;;7.83;2.70;;;;;;;3.46;87.89;94833.28;5098441;28;20548;-78
2020/12/30 09:07:31;;;;;;;4.47;2.90;;;;;;;3.50;87.70;94837.06;5098000;28;20505;-79
2020/12/30 09:10:04;;;;;;;2.83;2.07;;;;;;;3.49;87.68;94842.91;5098077;28;20804;-78
2020/12/30 09:12:30;;;;;;;6.33;2.03;;;;;;;3.58;87.50;94847.72;5096439;28;21016;-79
2020/12/30 09:14:57;;;;;;;4.17;2.00;;;;;;;3.50;87.60;94850.38;5096939;28;20448;-78
2020/12/30 09:17:23;;;;;;;2.77;1.90;;;;;;;3.51;87.51;94841.13;5098222;28;20452;-80
2020/12/30 09:19:50;;;;;;;2.93;1.93;;;;;;;3.58;87.56;94850.38;5098893;28;20457;-79
2020/12/30 09:22:16;;;;;;;3.87;1.70;;;;;;;3.49;88.09;94848.22;5099203;28;20830;-79
2020/12/30 09:24:44;;;;;;;6.30;2.47;;;;;;;3.58;88.25;94850.38;5099150;28;20466;-83
2020/12/30 09:27:20;;;;;;;5.07;1.73;;;;;;;3.58;88.19;94851.09;5100426;28;20437;-79
2020/12/30 09:30:02;;;;;;;2.80;1.90;;;;;;;3.69;87.85;94853.44;5102412;28;20998;-81
2020/12/30 09:32:28;;;;;;;8.73;1.90;;;;;;;3.69;87.80;94855.41;5099421;28;20673;-80
2020/12/30 09:34:59;;;;;;;1.87;1.63;;;;;;;3.73;87.58;94856.47;5099087;28;20960;-80
2020/12/30 09:37:26;;;;;;;3.00;1.80;;;;;;;3.72;87.96;94855.06;5110768;28;20416;-80
2020/12/30 09:40:06;;;;;;;4.13;1.87;;;;;;;3.87;87.13;94864.31;5118595;28;20416;-80
2020/12/30 09:42:34;;;;;;;3.53;1.93;;;;;;;3.85;86.85;94866.81;5116830;28;20431;-80
2020/12/30 09:45:01;;;;;;;4.47;1.50;;;;;;;3.77;86.67;94864.13;5118000;28;20466;-79
2020/12/30 09:47:27;;;;;;;2.40;1.67;;;;;;;3.92;86.43;94864.13;5108681;28;20436;-82
2020/12/30 09:49:54;;;;;;;2.43;1.20;;;;;;;4.02;85.80;94864.31;5101471;28;20441;-83
2020/12/30 09:52:20;;;;;;;2.30;1.60;;;;;;;4.04;85.76;94870.53;5100434;28;20507;-80
2020/12/30 09:54:47;;;;;;;2.10;1.37;;;;;;;4.07;85.26;94868.78;5100349;28;20436;-80
2020/12/30 09:57:13;;;;;;;5.43;1.97;;;;;;;4.04;85.09;94867.88;5096813;28;20428;-82
2020/12/30 10:06:55;;;;;;;1.17;0.97;;;;;;;3.98;85.26;94875.34;5118854;28;20386;-88
2020/12/30 10:09:22;;;;;;;1.90;1.00;;;;;;;4.04;85.06;94878.53;5097208;28;20452;-79
2020/12/30 10:11:51;;;;;;;2.53;1.40;;;;;;;4.01;85.01;94884.25;5098039;28;20488;-80
2020/12/30 10:14:20;;;;;;;5.27;1.20;;;;;;;4.10;84.89;94876.41;5098677;28;20441;-80
2020/12/30 10:16:47;;;;;;;3.03;1.50;;;;;;;4.04;85.40;94883.88;5099030;28;20928;-81
2020/12/30 10:19:13;;;;;;;2.60;1.33;;;;;;;4.01;85.88;94879.63;5100924;28;20448;-81
2020/12/30 10:21:39;;;;;;;3.40;1.40;;;;;;;4.10;85.61;94879.09;5101621;28;20899;-82
2020/12/30 10:24:07;;;;;;;3.93;1.67;;;;;;;4.13;85.57;94883.38;5102082;28;20470;-83
2020/12/30 10:26:33;;;;;;;5.97;2.20;;;;;;;4.22;84.59;94876.78;5099719;28;20439;-80
2020/12/30 10:29:00;;;;;;;3.03;1.43;;;;;;;4.10;85.46;94883.72;5097735;28;20453;-79
2020/12/30 10:31:26;;;;;;;8.30;1.80;;;;;;;4.12;86.02;94881.22;5098264;28;20508;-79
2020/12/30 10:33:52;;;;;;;3.83;1.90;;;;;;;4.18;85.94;94879.81;5098331;28;20438;-79
2020/12/30 10:36:19;;;;;;;3.20;1.93;;;;;;;4.31;85.40;94878.94;5098032;28;20449;-78
2020/12/30 10:38:45;;;;;;;3.57;2.63;;;;;;;4.40;85.08;94872.34;5098052;28;20432;-79
2020/12/30 10:41:16;;;;;;;4.00;1.80;;;;;;;4.54;84.59;94873.59;5098148;28;20553;-79
2020/12/30 10:43:42;;;;;;;6.37;2.37;;;;;;;4.71;83.85;94879.06;5097290;28;20423;-79
2020/12/30 10:46:12;;;;;;;4.33;2.40;;;;;;;4.89;82.42;94885.28;5098065;28;20415;-79
2020/12/30 10:48:39;;;;;;;6.53;2.27;;;;;;;4.96;82.10;94895.22;5098449;28;20411;-79
2020/12/30 10:51:10;;;;;;;8.43;1.93;;;;;;;5.09;82.44;94892.34;5098212;28;20432;-81
2020/12/30 10:53:37;;;;;;;5.00;1.60;;;;;;;5.15;81.61;94892.84;5101296;28;20528;-82
2020/12/30 10:56:03;;;;;;;1.70;1.37;;;;;;;5.28;80.49;94898.69;5103304;28;20808;-82
2020/12/30 10:58:31;;;;;;;1.93;1.20;;;;;;;5.26;80.22;94895.84;5102643;28;20470;-82
2020/12/30 11:00:57;;;;;;;2.67;1.30;;;;;;;5.34;79.95;94893.16;5102270;28;20436;-79
2020/12/30 11:03:23;;;;;;;3.57;1.60;;;;;;;5.38;79.60;94894.22;5101166;28;20432;-81
2020/12/30 11:05:50;;;;;;;2.90;1.10;;;;;;;5.41;79.39;94897.75;5103401;28;20454;-80
2020/12/30 11:08:16;;;;;;;3.00;1.47;;;;;;;5.49;79.96;94892.38;5101140;28;20414;-80
2020/12/30 11:10:42;;;;;;;3.03;1.40;;;;;;;5.49;79.19;94898.44;5103737;28;20407;-81
2020/12/30 11:13:09;;;;;;;1.80;1.30;;;;;;;5.59;79.02;94899.28;5100579;28;20960;-79
2020/12/30 11:15:36;;;;;;;3.70;1.30;;;;;;;5.60;79.23;94900.00;5100706;28;20497;-79
2020/12/30 11:18:03;;;;;;;2.47;1.23;;;;;;;5.68;79.55;94889.97;5100729;28;20411;-79
2020/12/30 11:20:30;;;;;;;1.63;1.33;;;;;;;5.66;78.45;94897.84;5100565;28;20425;-79
2020/12/30 11:22:56;;;;;;;4.53;1.27;;;;;;;5.60;78.58;94894.66;5109705;28;20427;-79
2020/12/30 11:25:23;;;;;;;2.50;1.10;;;;;;;5.63;78.35;94894.28;5120223;28;20411;-80
2020/12/30 11:27:51;;;;;;;3.00;1.43;;;;;;;5.60;79.50;94892.69;5120279;28;20436;-80
2020/12/30 11:30:19;;;;;;;4.30;1.97;;;;;;;5.68;78.13;94900.66;5120516;28;20441;-80
2020/12/30 11:32:47;;;;;;;3.27;1.50;;;;;;;5.57;78.70;94895.75;5117593;28;20485;-81
2020/12/30 11:35:13;;;;;;;2.67;1.43;;;;;;;5.55;79.22;94898.94;5099020;28;20426;-82
2020/12/30 11:37:40;;;;;;;3.27;1.77;;;;;;;5.62;80.02;94900.16;5099558;28;20456;-81
2020/12/30 11:40:06;;;;;;;2.70;1.20;;;;;;;5.68;79.54;94903.34;5099323;28;20490;-83
2020/12/30 11:42:33;;;;;;;2.53;1.57;;;;;;;5.59;79.66;94903.91;5099416;28;20472;-83
2020/12/30 11:44:59;;;;;;;6.20;1.40;;;;;;;5.55;79.89;94898.22;5098880;28;20440;-83
2020/12/30 11:47:25;;;;;;;3.10;1.70;;;;;;;5.64;79.72;94908.38;5100464;28;20441;-83
2020/12/30 11:49:53;;;;;;;2.20;0.90;;;;;;;5.69;79.12;94910.13;5101571;28;20429;-82
2020/12/30 11:52:19;;;;;;;5.47;1.50;;;;;;;5.58;79.69;94905.16;5100118;28;20488;-83
2020/12/30 11:54:46;;;;;;;2.13;1.20;;;;;;;5.55;79.91;94903.56;5099772;28;20445;-84